createdAt,value
2022-11-22T00:00:53.703Z,19.88
2022-11-22T00:01:56.605Z,20.55
2022-11-22T00:03:01.410Z,18.52
2022-11-22T00:04:04.157Z,18.70
2022-11-22T00:05:06.985Z,20.42
2022-11-22T00:06:10.899Z,20.52
2022-11-22T00:07:13.783Z,19.60
2022-11-22T00:08:22.126Z,19.23
2022-11-22T00:09:25.234Z,19.88
2022-11-22T00:10:28.111Z,19.40
2022-11-22T00:11:32.177Z,19.23
2022-11-22T00:12:35.153Z,19.05
2022-11-22T00:13:38.552Z,19.80
2022-11-22T00:14:41.237Z,19.08
2022-11-22T00:15:45.708Z,19.75
2022-11-22T00:16:48.521Z,19.25
2022-11-22T00:17:51.474Z,18.75
2022-11-22T00:18:54.399Z,20.08
2022-11-22T00:19:58.468Z,19.05
2022-11-22T00:21:09.330Z,20.10
2022-11-22T00:22:11.972Z,19.75
2022-11-22T00:23:17.127Z,19.88
2022-11-22T00:24:20.255Z,18.58
2022-11-22T00:25:23.584Z,18.88
2022-11-22T00:26:26.469Z,19.58
2022-11-22T00:27:29.537Z,19.60
2022-11-22T00:28:35.084Z,19.05
2022-11-22T00:29:38.230Z,20.98
2022-11-22T00:30:41.253Z,19.92
2022-11-22T00:31:43.944Z,19.98
2022-11-22T00:32:46.605Z,20.08
2022-11-22T00:33:49.464Z,19.42
2022-11-22T00:34:53.490Z,20.08
2022-11-22T00:35:56.226Z,19.30
2022-11-22T00:36:58.880Z,19.70
2022-11-22T00:38:02.374Z,19.60
2022-11-22T00:39:07.882Z,18.75
2022-11-22T00:40:11.173Z,19.95
2022-11-22T00:41:16.942Z,19.63
2022-11-22T00:42:19.582Z,19.88
2022-11-22T00:43:23.414Z,18.83
2022-11-22T00:44:26.682Z,18.73
2022-11-22T00:45:29.567Z,19.92
2022-11-22T00:46:32.469Z,19.60
2022-11-22T00:47:37.019Z,17.92
2022-11-22T00:48:40.243Z,19.05
2022-11-22T00:49:43.265Z,19.48
2022-11-22T00:50:49.556Z,19.88
2022-11-22T00:51:52.217Z,19.95
2022-11-22T00:52:57.964Z,19.33
2022-11-22T00:54:01.598Z,20.83
2022-11-22T00:55:04.596Z,18.50
2022-11-22T00:56:09.539Z,20.85
2022-11-22T00:57:12.531Z,20.20
2022-11-22T00:58:15.559Z,20.17
2022-11-22T00:59:19.834Z,18.58
2022-11-22T01:00:22.944Z,18.98
2022-11-22T01:01:25.880Z,19.25
2022-11-22T01:02:29.641Z,18.95
2022-11-22T01:03:32.545Z,19.55
2022-11-22T01:04:35.505Z,19.60
2022-11-22T01:05:38.250Z,19.67
2022-11-22T01:06:42.786Z,19.63
2022-11-22T01:07:45.806Z,21.02
2022-11-22T01:08:49.928Z,20.02
2022-11-22T01:09:52.966Z,20.48
2022-11-22T01:10:59.531Z,20.30
2022-11-22T01:12:02.624Z,20.48
2022-11-22T01:13:06.597Z,19.25
2022-11-22T01:14:10.350Z,21.27
2022-11-22T01:15:15.374Z,20.02
2022-11-22T01:16:18.065Z,19.75
2022-11-22T01:17:20.738Z,20.95
2022-11-22T01:18:23.379Z,21.50
2022-11-22T01:19:26.517Z,21.05
2022-11-22T01:20:31.134Z,20.98
2022-11-22T01:21:34.251Z,20.60
2022-11-22T01:22:36.863Z,20.42
2022-11-22T01:23:39.646Z,20.60
2022-11-22T01:24:43.125Z,20.58
2022-11-22T01:25:45.815Z,19.92
2022-11-22T01:26:48.745Z,20.88
2022-11-22T01:27:51.499Z,21.17
2022-11-22T01:28:54.550Z,20.73
2022-11-22T01:29:57.354Z,19.35
2022-11-22T01:31:00.013Z,20.15
2022-11-22T01:32:02.572Z,20.35
2022-11-22T01:33:05.244Z,19.05
2022-11-22T01:34:08.325Z,19.67
2022-11-22T01:35:12.167Z,19.27
2022-11-22T01:36:18.851Z,21.25
2022-11-22T01:37:22.092Z,19.33
2022-11-22T01:38:25.318Z,21.83
2022-11-22T01:39:28.835Z,19.92
2022-11-22T01:40:33.087Z,19.33
2022-11-22T01:41:37.261Z,20.58
2022-11-22T01:42:49.603Z,20.45
2022-11-22T01:43:54.904Z,19.25
2022-11-22T01:45:31.181Z,19.25
2022-11-22T01:46:39.583Z,19.77
2022-11-22T01:47:42.922Z,20.30
2022-11-22T01:49:00.230Z,20.25
2022-11-22T01:50:07.993Z,19.67
2022-11-22T01:51:30.335Z,19.40
2022-11-22T01:52:35.065Z,20.27
2022-11-22T01:53:39.810Z,19.52
2022-11-22T01:54:50.917Z,21.02
2022-11-22T01:55:55.876Z,20.35
2022-11-22T01:57:02.848Z,20.95
2022-11-22T01:58:08.328Z,19.00
2022-11-22T01:59:15.124Z,19.75
2022-11-22T02:00:19.893Z,21.00
2022-11-22T02:01:23.398Z,19.30
2022-11-22T02:02:28.078Z,20.75
2022-11-22T02:03:33.914Z,21.52
2022-11-22T02:04:38.256Z,20.60
2022-11-22T02:05:42.325Z,20.88
2022-11-22T02:07:06.375Z,20.35
2022-11-22T02:08:19.021Z,19.33
2022-11-22T02:09:23.191Z,20.25
2022-11-22T02:10:29.714Z,21.35
2022-11-22T02:11:34.432Z,20.63
2022-11-22T02:12:37.765Z,18.98
2022-11-22T02:13:44.956Z,20.27
2022-11-22T02:14:48.143Z,19.60
2022-11-22T02:15:52.413Z,18.00
2022-11-22T02:16:56.814Z,20.40
2022-11-22T02:17:59.858Z,19.40
2022-11-22T02:19:02.969Z,19.75
2022-11-22T02:20:07.955Z,17.45
2022-11-22T02:21:11.529Z,17.83
2022-11-22T02:22:33.266Z,18.63
2022-11-22T02:23:57.459Z,19.65
2022-11-22T02:25:30.225Z,18.95
2022-11-22T02:26:35.217Z,15.95
2022-11-22T02:27:42.179Z,19.92
2022-11-22T02:28:45.783Z,19.08
2022-11-22T02:29:51.485Z,18.80
2022-11-22T02:30:56.937Z,18.83
2022-11-22T02:32:00.012Z,18.65
2022-11-22T02:33:08.782Z,17.48
2022-11-22T02:34:13.573Z,17.95
2022-11-22T02:35:26.211Z,18.40
2022-11-22T02:36:35.907Z,17.33
2022-11-22T02:37:42.398Z,19.75
2022-11-22T02:38:49.638Z,19.50
2022-11-22T02:40:00.016Z,20.15
2022-11-22T02:41:07.721Z,18.55
2022-11-22T02:42:15.167Z,18.38
2022-11-22T02:43:27.201Z,17.33
2022-11-22T02:44:31.201Z,18.02
2022-11-22T02:45:34.688Z,19.00
2022-11-22T02:46:47.435Z,18.52
2022-11-22T02:47:50.724Z,18.65
2022-11-22T02:48:58.602Z,17.77
2022-11-22T02:50:02.554Z,18.98
2022-11-22T02:51:10.292Z,17.73
2022-11-22T02:52:19.913Z,18.85
2022-11-22T02:53:29.475Z,18.92
2022-11-22T02:54:33.578Z,19.15
2022-11-22T02:55:37.326Z,18.23
2022-11-22T02:56:41.371Z,17.83
2022-11-22T02:57:44.761Z,18.38
2022-11-22T02:58:48.573Z,18.13
2022-11-22T02:59:51.995Z,17.95
2022-11-22T03:00:55.924Z,19.27
2022-11-22T03:02:03.779Z,18.38
2022-11-22T03:03:08.496Z,19.25
2022-11-22T03:04:25.351Z,19.80
2022-11-22T03:05:29.079Z,18.63
2022-11-22T03:06:35.016Z,17.20
2022-11-22T03:07:38.623Z,19.13
2022-11-22T03:08:45.250Z,18.05
2022-11-22T03:09:49.495Z,18.05
2022-11-22T03:10:54.482Z,18.02
2022-11-22T03:12:00.836Z,18.73
2022-11-22T03:13:10.850Z,16.63
2022-11-22T03:14:19.557Z,17.02
2022-11-22T03:15:25.842Z,18.20
2022-11-22T03:16:31.217Z,17.60
2022-11-22T03:17:35.219Z,17.02
2022-11-22T03:18:39.414Z,18.92
2022-11-22T03:19:45.672Z,17.42
2022-11-22T03:20:49.626Z,17.55
2022-11-22T03:21:57.292Z,17.77
2022-11-22T03:23:01.600Z,16.17
2022-11-22T03:24:12.766Z,17.92
2022-11-22T03:25:24.150Z,16.75
2022-11-22T03:26:27.860Z,18.60
2022-11-22T03:27:32.484Z,18.65
2022-11-22T03:28:37.487Z,18.25
2022-11-22T03:29:41.978Z,18.50
2022-11-22T03:30:44.968Z,18.25
2022-11-22T03:31:50.054Z,19.13
2022-11-22T03:32:56.247Z,17.38
2022-11-22T03:34:09.467Z,17.88
2022-11-22T03:35:15.908Z,18.15
2022-11-22T03:36:19.145Z,18.35
2022-11-22T03:37:29.722Z,16.95
2022-11-22T03:38:35.425Z,17.98
2022-11-22T03:39:38.541Z,17.73
2022-11-22T03:40:41.203Z,16.85
2022-11-22T03:41:44.431Z,16.98
2022-11-22T03:42:48.214Z,16.70
2022-11-22T03:43:51.290Z,17.95
2022-11-22T03:44:54.439Z,17.02
2022-11-22T03:45:57.627Z,17.60
2022-11-22T03:47:00.134Z,17.83
2022-11-22T03:48:06.394Z,17.55
2022-11-22T03:49:12.300Z,17.63
2022-11-22T03:50:16.531Z,18.75
2022-11-22T03:51:19.677Z,17.30
2022-11-22T03:52:22.177Z,17.67
2022-11-22T03:53:25.449Z,17.77
2022-11-22T03:54:30.883Z,18.02
2022-11-22T03:55:33.962Z,17.95
2022-11-22T03:56:37.023Z,16.92
2022-11-22T03:57:39.938Z,15.68
2022-11-22T03:58:42.816Z,17.92
2022-11-22T03:59:47.313Z,16.75
2022-11-22T04:00:51.094Z,17.48
2022-11-22T04:01:55.501Z,18.20
2022-11-22T04:02:58.724Z,17.52
2022-11-22T04:04:01.339Z,17.45
2022-11-22T04:05:04.317Z,16.98
2022-11-22T04:06:09.626Z,18.27
2022-11-22T04:07:15.470Z,15.68
2022-11-22T04:08:19.099Z,17.73
2022-11-22T04:09:22.971Z,17.38
2022-11-22T04:10:28.462Z,17.67
2022-11-22T04:11:33.813Z,16.92
2022-11-22T04:12:37.891Z,17.85
2022-11-22T04:13:58.991Z,17.60
2022-11-22T04:15:08.211Z,16.63
2022-11-22T04:16:10.841Z,17.73
2022-11-22T04:17:35.442Z,18.73
2022-11-22T04:18:40.464Z,18.15
2022-11-22T04:20:03.165Z,17.10
2022-11-22T04:21:29.147Z,17.98
2022-11-22T04:22:32.163Z,17.23
2022-11-22T04:23:35.537Z,17.55
2022-11-22T04:24:57.447Z,17.75
2022-11-22T04:26:03.838Z,16.73
2022-11-22T04:27:07.802Z,16.55
2022-11-22T04:28:11.942Z,18.48
2022-11-22T04:29:24.604Z,18.30
2022-11-22T04:30:52.114Z,16.88
2022-11-22T04:32:18.102Z,16.77
2022-11-22T04:33:25.745Z,16.10
2022-11-22T04:34:31.367Z,16.17
2022-11-22T04:35:47.029Z,17.10
2022-11-22T04:37:01.143Z,16.58
2022-11-22T04:38:07.941Z,16.80
2022-11-22T04:39:11.683Z,16.70
2022-11-22T04:40:18.846Z,15.52
2022-11-22T04:41:26.083Z,18.55
2022-11-22T04:43:01.007Z,16.65
2022-11-22T04:44:23.774Z,16.55
2022-11-22T04:45:28.941Z,17.35
2022-11-22T04:46:35.258Z,15.40
2022-11-22T04:47:58.717Z,15.32
2022-11-22T04:49:03.552Z,14.80
2022-11-22T04:50:38.540Z,17.08
2022-11-22T04:52:01.193Z,15.80
2022-11-22T04:53:10.292Z,16.38
2022-11-22T04:54:15.343Z,16.30
2022-11-22T04:55:18.701Z,17.98
2022-11-22T04:56:34.578Z,16.88
2022-11-22T04:57:39.338Z,16.67
2022-11-22T04:58:44.279Z,17.40
2022-11-22T04:59:54.095Z,14.63
2022-11-22T05:01:04.678Z,15.88
2022-11-22T05:02:09.578Z,17.45
2022-11-22T05:03:17.794Z,17.70
2022-11-22T05:04:23.136Z,16.00
2022-11-22T05:05:29.516Z,16.70
2022-11-22T05:06:34.438Z,15.63
2022-11-22T05:07:38.006Z,15.60
2022-11-22T05:08:44.933Z,15.60
2022-11-22T05:09:52.280Z,15.70
2022-11-22T05:10:58.683Z,15.18
2022-11-22T05:12:06.571Z,17.60
2022-11-22T05:13:10.648Z,16.73
2022-11-22T05:14:15.967Z,16.55
2022-11-22T05:15:26.736Z,16.30
2022-11-22T05:16:32.609Z,17.27
2022-11-22T05:17:38.640Z,17.00
2022-11-22T05:18:42.656Z,16.38
2022-11-22T05:19:49.454Z,16.33
2022-11-22T05:20:53.334Z,16.88
2022-11-22T05:21:57.764Z,16.98
2022-11-22T05:23:19.328Z,17.35
2022-11-22T05:24:26.810Z,16.63
2022-11-22T05:25:31.654Z,16.98
2022-11-22T05:27:04.943Z,15.70
2022-11-22T05:28:11.969Z,16.05
2022-11-22T05:29:27.981Z,15.77
2022-11-22T05:30:37.922Z,13.52
2022-11-22T05:31:50.994Z,15.25
2022-11-22T05:33:00.900Z,14.02
2022-11-22T05:34:12.985Z,15.98
2022-11-22T05:35:15.696Z,15.77
2022-11-22T05:36:18.772Z,16.55
2022-11-22T05:37:23.107Z,16.30
2022-11-22T05:38:27.399Z,14.07
2022-11-22T05:39:34.969Z,15.30
2022-11-22T05:40:38.427Z,16.05
2022-11-22T05:41:56.241Z,15.07
2022-11-22T05:43:07.477Z,14.05
2022-11-22T05:44:11.916Z,15.93
2022-11-22T05:45:21.776Z,15.82
2022-11-22T05:46:31.146Z,15.27
2022-11-22T05:47:39.253Z,13.25
2022-11-22T05:48:47.927Z,15.07
2022-11-22T05:49:54.244Z,14.57
2022-11-22T05:50:59.201Z,14.63
2022-11-22T05:52:03.270Z,15.10
2022-11-22T05:53:11.023Z,15.18
2022-11-22T05:54:16.754Z,14.82
2022-11-22T05:55:31.394Z,15.13
2022-11-22T05:57:12.573Z,12.05
2022-11-22T06:00:21.044Z,14.45
2022-11-22T06:02:01.638Z,13.65
2022-11-22T06:03:15.205Z,14.77
2022-11-22T06:04:24.969Z,14.90
2022-11-22T06:05:32.102Z,14.45
2022-11-22T06:06:34.655Z,13.98
2022-11-22T06:07:41.157Z,13.57
2022-11-22T06:09:03.384Z,13.38
2022-11-22T06:10:10.640Z,12.90
2022-11-22T06:11:22.670Z,13.90
2022-11-22T06:12:29.440Z,11.85
2022-11-22T06:13:43.869Z,13.03
2022-11-22T06:14:46.789Z,12.73
2022-11-22T06:16:02.727Z,12.40
2022-11-22T06:17:06.605Z,12.45
2022-11-22T06:18:14.197Z,12.90
2022-11-22T06:19:16.956Z,12.48
2022-11-22T06:20:24.699Z,10.95
2022-11-22T06:21:36.511Z,9.90
2022-11-22T07:23:31.188Z,6.53
2022-11-22T07:24:33.648Z,6.85
2022-11-22T07:25:36.312Z,5.72
2022-11-22T07:26:38.885Z,6.40
2022-11-22T07:27:41.411Z,6.22
2022-11-22T07:28:50.178Z,6.32
2022-11-22T07:29:52.854Z,6.28
2022-11-22T07:31:00.840Z,6.47
2022-11-22T07:32:04.069Z,6.50
2022-11-22T07:33:08.190Z,6.00
2022-11-22T07:34:11.090Z,5.95
2022-11-22T07:35:13.810Z,6.35
2022-11-22T07:36:21.365Z,6.00
2022-11-22T07:37:27.198Z,6.15
2022-11-22T07:38:30.314Z,4.60
2022-11-22T07:39:40.005Z,5.43
2022-11-22T08:43:16.429Z,5.10
2022-11-22T08:44:20.550Z,4.63
2022-11-22T08:45:26.083Z,5.38
2022-11-22T08:46:31.172Z,5.80
2022-11-22T08:47:38.895Z,5.47
2022-11-22T08:48:45.102Z,5.93
2022-11-22T08:55:17.114Z,5.68
2022-11-22T08:56:21.615Z,6.45
2022-11-22T08:57:27.518Z,5.95
2022-11-22T08:58:41.478Z,6.22
2022-11-22T08:59:52.292Z,6.47
2022-11-22T09:01:10.844Z,5.60
2022-11-22T09:02:14.881Z,5.18
2022-11-22T09:03:20.634Z,5.35
2022-11-22T09:04:26.459Z,5.97
2022-11-22T09:05:31.204Z,6.15
2022-11-22T09:13:30.564Z,5.80
2022-11-22T09:14:40.086Z,5.05
2022-11-22T09:15:45.705Z,5.10
2022-11-22T09:33:41.038Z,5.13
2022-11-22T09:34:51.732Z,5.53
2022-11-22T09:36:05.010Z,4.85
2022-11-22T09:37:09.071Z,5.57
2022-11-22T09:38:17.246Z,5.75
2022-11-22T09:39:23.419Z,5.88
2022-11-22T09:40:26.018Z,5.85
2022-11-22T09:42:11.786Z,5.40
2022-11-22T09:44:03.534Z,5.28
2022-11-22T09:45:48.255Z,4.60
2022-11-22T09:47:10.822Z,5.45
2022-11-22T09:48:23.009Z,4.80
2022-11-22T09:49:37.349Z,6.00
2022-11-22T09:51:23.526Z,5.47
2022-11-22T09:52:36.381Z,4.30
2022-11-22T09:53:50.941Z,4.70
2022-11-22T09:55:13.721Z,4.35
2022-11-22T09:56:23.001Z,4.18
2022-11-22T09:57:51.248Z,4.10
2022-11-22T09:59:08.770Z,3.67
2022-11-22T10:00:35.852Z,4.10
2022-11-22T10:05:22.310Z,3.88
2022-11-22T10:06:41.241Z,3.90
2022-11-22T10:07:55.273Z,3.70
2022-11-22T10:09:39.310Z,3.80
2022-11-22T10:10:53.007Z,3.58
2022-11-22T10:12:03.080Z,3.88
2022-11-22T10:15:36.312Z,3.38
2022-11-22T10:16:53.497Z,3.92
2022-11-22T10:18:04.858Z,4.10
2022-11-22T10:19:32.611Z,3.25
2022-11-22T10:20:47.304Z,3.80
2022-11-22T10:21:58.366Z,3.60
2022-11-22T10:23:06.460Z,3.85
2022-11-22T10:24:18.052Z,3.45
2022-11-22T10:25:40.240Z,3.35
2022-11-22T10:35:45.974Z,3.40
2022-11-22T10:46:13.898Z,3.90
2022-11-22T10:47:47.680Z,3.42
2022-11-22T10:49:31.846Z,3.97
2022-11-22T10:51:12.937Z,3.92
2022-11-22T10:53:13.278Z,4.55
2022-11-22T10:55:06.512Z,3.53
2022-11-22T10:56:52.235Z,3.80
2022-11-22T10:58:19.725Z,4.00
2022-11-22T10:59:43.200Z,3.72
2022-11-22T11:01:01.412Z,4.60
2022-11-22T11:02:38.522Z,4.55
2022-11-22T11:03:49.894Z,4.40
2022-11-22T11:05:05.366Z,4.70
2022-11-22T11:23:27.786Z,4.53
2022-11-22T11:24:32.675Z,5.03
2022-11-22T11:25:41.070Z,4.80
2022-11-22T11:53:26.928Z,6.63
2022-11-22T11:54:44.655Z,6.10
2022-11-22T11:55:47.449Z,6.13
2022-11-22T11:56:57.985Z,6.22
2022-11-22T11:58:04.133Z,6.15
2022-11-22T11:59:16.644Z,5.82
2022-11-22T12:00:26.325Z,6.00
2022-11-22T12:01:38.948Z,5.40
2022-11-22T12:02:46.826Z,5.93
2022-11-22T12:03:59.058Z,5.63
2022-11-22T12:05:34.948Z,6.60
2022-11-22T12:06:43.709Z,5.88
2022-11-22T12:07:52.988Z,6.90
2022-11-22T12:09:01.040Z,6.07
2022-11-22T12:10:27.359Z,6.63
2022-11-22T12:11:49.192Z,6.25
2022-11-22T12:13:13.562Z,5.75
2022-11-22T12:14:37.572Z,5.25
2022-11-22T12:16:10.916Z,6.20
2022-11-22T12:17:31.917Z,5.30
2022-11-22T12:18:58.815Z,5.55
2022-11-22T12:20:22.192Z,6.43
2022-11-22T12:21:40.029Z,6.03
2022-11-22T12:23:11.438Z,6.30
2022-11-22T12:24:48.767Z,6.55
2022-11-22T12:26:02.791Z,6.03
2022-11-22T15:12:40.529Z,10.75
2022-11-22T15:14:03.841Z,10.68
2022-11-22T15:58:21.385Z,9.60
2022-11-22T15:59:47.324Z,8.65
2022-11-22T16:01:19.173Z,14.95
2022-11-22T16:04:31.356Z,14.25
2022-11-22T16:06:04.368Z,7.97
2022-11-22T16:07:53.891Z,13.98
2022-11-22T16:09:15.716Z,7.97
2022-11-22T16:10:45.848Z,7.40
2022-11-22T16:12:04.340Z,11.10
2022-11-22T16:13:48.667Z,6.30
2022-11-22T16:15:27.528Z,6.22
2022-11-22T16:16:36.338Z,9.48
2022-11-22T16:17:59.172Z,8.75
2022-11-22T16:19:25.386Z,6.85
2022-11-22T16:20:37.766Z,7.15
2022-11-22T16:21:56.562Z,6.43
2022-11-22T16:25:33.859Z,8.13
2022-11-22T16:26:55.459Z,7.07
2022-11-22T16:31:33.255Z,7.57
2022-11-22T17:12:45.319Z,7.13
2022-11-22T17:13:49.854Z,7.93
2022-11-22T17:14:54.124Z,8.40
2022-11-22T17:16:02.319Z,7.90
2022-11-22T17:17:08.155Z,8.13
2022-11-22T17:18:13.379Z,8.38
2022-11-22T17:19:51.635Z,8.00
2022-11-22T17:20:52.204Z,8.43
2022-11-22T17:24:11.254Z,8.13
2022-11-22T17:25:20.580Z,7.45
2022-11-22T17:28:06.888Z,7.97
2022-11-22T17:29:57.845Z,8.52
2022-11-22T17:31:47.323Z,8.48
2022-11-22T17:54:54.614Z,7.97
2022-11-22T18:04:32.217Z,7.32
2022-11-22T18:05:40.953Z,8.52
2022-11-22T18:08:21.899Z,8.32
2022-11-22T18:09:53.345Z,7.50
2022-11-22T18:11:05.807Z,7.75
2022-11-22T18:12:14.290Z,7.72
2022-11-22T18:13:29.268Z,8.60
2022-11-22T18:15:03.534Z,7.75
2022-11-22T18:16:45.006Z,7.95
2022-11-22T18:18:55.114Z,6.50
2022-11-22T18:26:41.091Z,7.78
2022-11-22T18:30:55.567Z,8.50
2022-11-22T18:32:34.384Z,8.60
2022-11-22T18:33:57.662Z,8.95
2022-11-22T18:35:30.390Z,7.68
2022-11-22T18:37:19.880Z,8.23
2022-11-22T18:38:31.641Z,8.57
2022-11-22T18:40:11.378Z,8.95
2022-11-22T18:44:36.526Z,8.60
2022-11-22T18:46:22.030Z,9.02
2022-11-22T18:47:35.109Z,9.43
2022-11-22T18:48:50.523Z,10.05
2022-11-22T18:50:12.249Z,10.25
2022-11-22T18:53:17.180Z,9.95
2022-11-22T18:54:31.664Z,9.38
2022-11-22T18:57:04.539Z,9.15
2022-11-22T18:59:07.859Z,8.30
2022-11-22T19:01:33.302Z,9.05
2022-11-22T19:02:52.937Z,8.45
2022-11-22T19:04:07.354Z,8.32
2022-11-22T19:05:13.923Z,9.43
2022-11-22T19:06:31.105Z,9.20
2022-11-22T19:07:52.111Z,8.18
2022-11-22T19:09:21.852Z,8.65
2022-11-22T19:11:05.361Z,8.77
2022-11-22T19:12:18.030Z,8.85
2022-11-22T19:13:44.203Z,8.93
2022-11-22T19:14:58.263Z,9.23
2022-11-22T19:17:22.050Z,7.65
2022-11-22T19:18:31.466Z,6.63
2022-11-22T19:19:40.607Z,8.10
2022-11-22T19:20:55.087Z,7.47
2022-11-22T19:22:01.146Z,7.63
2022-11-22T19:23:11.052Z,7.55
2022-11-22T19:29:09.866Z,6.22
2022-11-22T19:30:18.028Z,5.90
2022-11-22T19:31:37.490Z,6.35
2022-11-22T19:32:49.369Z,6.03
2022-11-22T19:34:00.035Z,6.22
2022-11-22T19:35:16.966Z,5.68
2022-11-22T19:36:33.142Z,6.20
2022-11-22T19:37:40.236Z,6.28
2022-11-22T19:38:46.819Z,5.47
2022-11-22T19:40:02.458Z,5.70
2022-11-22T19:41:10.092Z,5.57
2022-11-22T19:43:57.392Z,5.20
2022-11-22T19:45:09.320Z,5.30
2022-11-22T19:46:13.455Z,5.20
2022-11-22T19:47:21.721Z,6.30
2022-11-22T19:52:24.293Z,5.63
2022-11-22T19:55:47.821Z,5.65
2022-11-22T19:56:52.059Z,6.10
2022-11-22T19:57:58.703Z,5.90
2022-11-22T19:59:11.934Z,6.43
2022-11-22T20:00:26.834Z,6.07
2022-11-22T20:01:44.357Z,5.85
2022-11-22T20:08:24.087Z,4.35
2022-11-22T20:09:41.585Z,4.55
2022-11-22T20:13:26.816Z,5.00
2022-11-22T20:17:45.017Z,4.55
2022-11-22T20:20:28.051Z,4.78
2022-11-22T20:21:42.342Z,5.40
2022-11-22T20:23:09.442Z,4.60
2022-11-22T20:24:45.336Z,4.50
2022-11-22T20:27:24.360Z,4.90
2022-11-22T20:34:48.077Z,4.80
2022-11-22T20:36:04.358Z,4.70
2022-11-22T20:37:10.321Z,5.13
2022-11-22T20:38:22.893Z,5.20
2022-11-22T20:42:05.896Z,5.50
2022-11-22T20:43:17.341Z,5.20
2022-11-22T20:44:54.076Z,5.43
2022-11-22T20:46:07.012Z,5.15
2022-11-22T20:47:13.236Z,4.85
2022-11-22T20:48:19.834Z,5.10
2022-11-22T20:49:31.203Z,5.50
2022-11-22T21:02:47.937Z,5.57
2022-11-22T21:06:05.675Z,5.90
2022-11-22T21:09:27.555Z,7.25
2022-11-22T21:11:20.007Z,8.13
2022-11-22T21:12:29.367Z,7.15
2022-11-22T21:13:59.497Z,8.48
2022-11-22T21:15:27.658Z,8.90
2022-11-22T21:20:48.659Z,7.80
2022-11-22T21:21:59.813Z,8.38
2022-11-22T21:23:07.432Z,7.68
2022-11-22T21:24:15.719Z,7.68
2022-11-22T21:25:23.207Z,8.48
2022-11-22T21:35:45.765Z,6.85
2022-11-22T21:37:04.030Z,6.85
2022-11-22T21:39:39.559Z,5.97
2022-11-22T21:41:10.763Z,7.00
2022-11-22T21:42:24.205Z,6.95
2022-11-22T21:43:50.044Z,6.82
2022-11-22T21:45:07.210Z,7.45
2022-11-22T21:46:29.221Z,6.93
2022-11-22T21:47:57.532Z,7.18
2022-11-22T21:49:37.075Z,7.47
2022-11-22T21:51:12.360Z,7.60
2022-11-22T21:54:08.044Z,8.68
2022-11-22T21:55:27.790Z,8.02
2022-11-22T21:57:06.928Z,8.02
2022-11-22T21:58:45.656Z,7.70
2022-11-22T22:04:00.458Z,8.15
2022-11-22T22:05:08.011Z,8.90
2022-11-22T22:06:14.170Z,8.73
2022-11-22T22:07:51.542Z,8.45
2022-11-22T22:08:52.912Z,8.93
2022-11-22T22:10:00.396Z,8.85
2022-11-22T22:11:07.995Z,9.15
2022-11-22T22:12:16.543Z,8.75
2022-11-22T22:13:38.070Z,9.25
2022-11-22T22:14:48.594Z,9.35
2022-11-22T22:15:58.651Z,9.63
2022-11-22T22:17:08.639Z,9.57
2022-11-22T22:18:19.466Z,9.70
2022-11-22T22:19:28.440Z,10.02
2022-11-22T22:20:45.699Z,9.80
2022-11-22T22:21:53.878Z,10.50
2022-11-22T22:22:59.559Z,10.68
2022-11-22T22:24:07.503Z,11.43
2022-11-22T22:25:24.866Z,11.35
2022-11-22T22:26:35.581Z,11.43
2022-11-22T22:27:39.688Z,12.10
2022-11-22T22:28:46.405Z,11.57
2022-11-22T22:29:53.918Z,11.48
2022-11-22T22:31:11.411Z,13.02
2022-11-22T22:32:15.861Z,12.07
2022-11-22T22:33:22.199Z,13.23
2022-11-22T22:34:26.469Z,13.98
2022-11-22T22:36:57.107Z,12.65
2022-11-22T22:38:18.188Z,13.55
2022-11-22T22:39:24.665Z,12.85
2022-11-22T22:40:31.789Z,13.07
2022-11-22T22:42:57.256Z,12.43
2022-11-22T22:44:01.666Z,13.02
2022-11-22T22:45:06.533Z,12.65
2022-11-22T22:46:20.259Z,12.52
2022-11-22T22:47:34.793Z,11.82
2022-11-22T22:48:47.290Z,12.20
2022-11-22T22:49:52.775Z,12.27
2022-11-22T22:51:02.638Z,13.27
2022-11-22T22:52:07.385Z,13.05
2022-11-22T22:53:20.571Z,13.05
2022-11-22T22:54:26.232Z,13.23
2022-11-22T22:55:32.010Z,13.30
2022-11-22T22:56:37.076Z,13.43
2022-11-22T22:57:41.249Z,13.88
2022-11-22T22:58:57.033Z,14.95
2022-11-22T23:00:28.250Z,14.55
2022-11-22T23:01:40.413Z,14.38
2022-11-22T23:02:47.589Z,14.60
2022-11-22T23:03:59.704Z,13.50
2022-11-22T23:05:09.002Z,12.32
2022-11-22T23:06:18.097Z,12.00
2022-11-22T23:07:22.670Z,13.77
2022-11-22T23:08:39.658Z,13.57
2022-11-22T23:09:51.364Z,15.48
2022-11-22T23:11:48.581Z,14.45
2022-11-22T23:12:57.082Z,16.65
2022-11-22T23:15:57.752Z,14.90
2022-11-22T23:17:06.147Z,16.15
2022-11-22T23:18:42.518Z,14.75
2022-11-22T23:19:49.587Z,14.75
2022-11-22T23:21:00.304Z,15.40
2022-11-22T23:22:07.486Z,14.98
2022-11-22T23:23:15.166Z,15.27
2022-11-22T23:24:24.871Z,15.10
2022-11-22T23:25:32.324Z,15.35
2022-11-22T23:26:45.296Z,13.77
2022-11-22T23:27:51.581Z,14.18
2022-11-22T23:29:01.945Z,13.43
2022-11-22T23:30:16.038Z,13.77
2022-11-22T23:31:21.294Z,13.52
2022-11-22T23:32:35.232Z,13.13
2022-11-22T23:33:45.818Z,13.43
2022-11-22T23:35:16.943Z,12.63
2022-11-22T23:36:27.394Z,12.25
2022-11-22T23:39:01.269Z,10.68
2022-11-22T23:40:11.827Z,11.55
2022-11-22T23:41:26.982Z,11.13
2022-11-22T23:42:35.082Z,11.10
2022-11-22T23:44:09.255Z,10.50
2022-11-22T23:46:50.727Z,9.73
2022-11-22T23:47:59.185Z,11.00
2022-11-22T23:49:34.169Z,9.82
2022-11-22T23:50:42.048Z,10.40
2022-11-22T23:51:48.264Z,10.75
2022-11-22T23:53:03.832Z,10.82
2022-11-22T23:54:11.330Z,10.45
2022-11-22T23:55:28.561Z,9.65
2022-11-22T23:56:38.852Z,9.85
2022-11-22T23:57:51.348Z,10.35
2022-11-22T23:58:59.184Z,9.95
